Time;durP1;ratioP1;P1;durP2;ratioP2;P2;SDS_P1;SDS_P2;PMS_P1;PMS_P2;Temp;Humidity;BMP_temperature;BMP_pressure;BME280_temperature;BME280_humidity;BME280_pressure;Samples;Min_cycle;Max_cycle;Signal;HPM_P1;HPM_P2
2022/08/27 00:03:28;;;;;;;11.50;4.78;;;;;;;22.92;64.94;99899.19;18431330;32;20118;-55
2022/08/27 00:13:32;;;;;;;9.35;4.28;;;;;;;22.85;65.33;99898.72;18432328;32;20192;-56
2022/08/27 00:23:37;;;;;;;11.15;4.25;;;;;;;22.96;63.87;99906.03;18431135;32;20704;-55
2022/08/27 00:33:40;;;;;;;9.85;3.85;;;;;;;22.80;64.59;99901.66;18430952;32;20118;-57
2022/08/27 00:43:47;;;;;;;10.98;4.47;;;;;;;22.72;64.62;99910.13;18430221;32;20154;-56
2022/08/27 00:53:52;;;;;;;10.23;4.43;;;;;;;22.67;64.70;99906.00;18429581;32;20084;-55
2022/08/27 01:04:05;;;;;;;9.73;4.45;;;;;;;22.59;64.66;99910.00;18429193;32;20475;-55
2022/08/27 01:14:08;;;;;;;10.80;4.22;;;;;;;22.38;65.67;99916.56;18432115;32;20135;-56
2022/08/27 01:24:29;;;;;;;9.68;4.68;;;;;;;22.27;65.37;99934.00;18436403;32;20452;-56
2022/08/27 01:34:32;;;;;;;13.05;4.25;;;;;;;22.07;66.29;99924.56;18436270;32;20085;-56
2022/08/27 01:44:48;;;;;;;11.32;4.22;;;;;;;22.09;66.62;99937.72;18435982;32;20339;-56
2022/08/27 01:54:51;;;;;;;9.57;4.32;;;;;;;22.01;67.17;99925.78;18435227;32;20093;-56
2022/08/27 02:04:56;;;;;;;9.70;4.20;;;;;;;22.11;65.96;99933.22;18421334;32;20093;-56
2022/08/27 02:15:00;;;;;;;9.38;4.40;;;;;;;22.08;65.97;99936.03;18434845;32;20147;-55
2022/08/27 02:25:06;;;;;;;11.73;4.35;;;;;;;21.89;66.38;99939.75;18433809;32;20342;-55
2022/08/27 02:35:12;;;;;;;10.38;4.53;;;;;;;21.77;65.56;99930.69;18434451;32;20133;-55
2022/08/27 02:45:19;;;;;;;11.18;4.20;;;;;;;21.68;66.53;99926.75;18435113;32;20431;-55
2022/08/27 02:55:22;;;;;;;10.48;4.55;;;;;;;21.76;65.05;99920.97;18433889;32;20086;-55
2022/08/27 03:05:28;;;;;;;11.18;4.35;;;;;;;21.67;65.77;99926.78;18433649;32;20097;-55
2022/08/27 03:15:31;;;;;;;11.27;4.35;;;;;;;21.48;65.56;99922.50;18433428;32;20103;-55
2022/08/27 03:25:36;;;;;;;8.73;4.28;;;;;;;21.36;66.12;99921.41;18433107;32;20142;-55
2022/08/27 03:35:39;;;;;;;11.68;4.45;;;;;;;21.21;65.98;99928.41;18432317;32;20097;-55
2022/08/27 03:45:44;;;;;;;8.50;4.10;;;;;;;21.19;67.09;99925.84;18432887;32;20089;-55
2022/08/27 03:56:03;;;;;;;10.73;4.50;;;;;;;21.10;65.98;99926.34;18432307;32;20101;-55
2022/08/27 04:06:08;;;;;;;8.77;4.20;;;;;;;21.18;66.01;99926.78;18431964;32;20120;-55
2022/08/27 04:16:11;;;;;;;7.60;3.97;;;;;;;21.27;65.79;99929.88;18431633;32;20116;-55
2022/08/27 04:26:16;;;;;;;8.40;4.18;;;;;;;21.23;66.04;99936.28;18431264;32;20093;-55
2022/08/27 04:36:20;;;;;;;9.90;4.10;;;;;;;21.25;66.55;99934.41;18430392;32;20110;-55
2022/08/27 04:46:27;;;;;;;8.20;4.00;;;;;;;21.44;66.04;99932.47;18429189;32;20096;-55
2022/08/27 04:56:31;;;;;;;9.50;4.15;;;;;;;21.62;65.79;99938.53;18429593;32;20093;-55
2022/08/27 05:06:36;;;;;;;11.18;4.22;;;;;;;21.95;65.39;99926.13;18429015;32;20447;-55
2022/08/27 05:16:39;;;;;;;10.15;4.53;;;;;;;22.26;65.42;99934.13;18428017;32;20097;-55
2022/08/27 05:26:44;;;;;;;10.40;4.90;;;;;;;22.63;64.69;99945.25;18427653;32;20089;-55
2022/08/27 05:36:47;;;;;;;10.57;5.45;;;;;;;22.71;64.99;99950.09;18427069;32;20109;-55
2022/08/27 05:46:52;;;;;;;13.00;4.62;;;;;;;22.91;64.71;99943.59;18427037;32;20450;-55
2022/08/27 05:56:56;;;;;;;10.50;3.85;;;;;;;23.50;62.87;99947.06;18427186;32;20194;-55
2022/08/27 06:07:01;;;;;;;8.25;3.53;;;;;;;24.73;57.82;99931.06;18435398;32;20101;-55
2022/08/27 06:17:06;;;;;;;8.90;3.37;;;;;;;25.67;53.97;99933.41;18435098;32;20092;-56
2022/08/27 06:27:13;;;;;;;7.43;3.33;;;;;;;25.94;53.68;99954.56;18434872;32;20101;-55
2022/08/27 06:37:16;;;;;;;10.73;4.00;;;;;;;27.12;50.15;99947.50;18435091;32;20089;-56
2022/08/27 06:47:21;;;;;;;12.13;3.75;;;;;;;26.98;51.64;99953.94;18434453;32;20092;-56
2022/08/27 06:57:24;;;;;;;8.90;3.37;;;;;;;26.60;54.55;99961.28;18433795;32;20465;-55
2022/08/27 07:07:28;;;;;;;8.40;3.58;;;;;;;25.80;55.68;99968.97;18433367;32;20093;-55
2022/08/27 07:17:40;;;;;;;10.00;3.37;;;;;;;26.28;56.19;99978.81;18427921;32;150329;-55
2022/08/27 07:27:45;;;;;;;9.05;3.42;;;;;;;26.59;54.90;99989.84;18431187;32;20089;-55
2022/08/27 07:37:48;;;;;;;14.02;3.95;;;;;;;26.86;54.00;99996.75;18418690;32;20194;-55
2022/08/27 07:47:53;;;;;;;10.35;3.75;;;;;;;27.11;53.65;99991.31;18433031;32;20089;-56
2022/08/27 07:57:56;;;;;;;11.75;3.70;;;;;;;27.48;55.40;99992.91;18433463;32;20467;-55
2022/08/27 08:08:01;;;;;;;7.87;3.22;;;;;;;27.79;53.24;99988.66;18432036;32;20150;-56
2022/08/27 08:18:04;;;;;;;8.27;2.85;;;;;;;28.12;51.19;99991.31;18431678;32;20089;-56
2022/08/27 08:28:10;;;;;;;12.13;2.87;;;;;;;28.72;48.62;99981.91;18429749;32;20358;-56
2022/08/27 08:38:13;;;;;;;7.10;2.62;;;;;;;29.38;42.96;99982.56;18431494;32;20103;-55
2022/08/27 08:48:21;;;;;;;5.82;2.55;;;;;;;29.89;37.94;99980.75;18431277;32;20147;-55
2022/08/27 08:58:33;;;;;;;8.75;3.05;;;;;;;30.34;37.93;99973.13;18429948;32;20453;-55
2022/08/27 09:08:40;;;;;;;6.07;2.60;;;;;;;30.83;36.21;99975.78;18429303;32;20108;-55
2022/08/27 09:18:44;;;;;;;8.32;2.53;;;;;;;31.19;36.20;99973.25;18428911;32;20449;-56
2022/08/27 09:29:18;;;;;;;7.27;2.53;;;;;;;31.50;32.97;99954.09;18428154;32;20183;-55
2022/08/27 09:39:28;;;;;;;7.70;2.35;;;;;;;32.12;32.76;99952.53;18435300;32;20111;-56
2022/08/27 09:49:35;;;;;;;;;;;;;;;32.30;30.77;99938.19;18436513;32;20144;-56
2022/08/27 09:59:41;;;;;;;8.65;2.60;;;;;;;32.74;31.65;99940.87;18436325;32;19999;-56
2022/08/27 10:09:50;;;;;;;6.07;2.10;;;;;;;33.45;31.24;99937.16;18436709;32;20130;-56
2022/08/27 10:20:02;;;;;;;8.68;2.47;;;;;;;34.14;28.26;99933.44;18434970;32;20085;-56
2022/08/27 10:30:09;;;;;;;6.97;2.53;;;;;;;34.07;27.84;99933.25;18434899;32;20093;-56
2022/08/27 10:40:17;;;;;;;6.78;1.90;;;;;;;34.94;24.28;99934.50;18434679;32;20388;-56
2022/08/27 10:50:27;;;;;;;7.10;2.00;;;;;;;34.70;26.10;99932.72;18419133;32;20120;-56
2022/08/27 11:00:39;;;;;;;8.70;2.03;;;;;;;34.81;25.62;99923.34;18421146;32;20368;-56
2022/08/27 11:10:47;;;;;;;5.87;2.28;;;;;;;34.27;25.02;99912.06;18433736;32;20451;-56
2022/08/27 11:20:54;;;;;;;8.00;2.10;;;;;;;34.62;27.62;99917.28;18434454;32;20111;-56
2022/08/27 11:31:03;;;;;;;8.10;2.15;;;;;;;35.32;24.33;99908.59;18368779;32;20132;-56
2022/08/27 11:41:30;;;;;;;5.93;2.05;;;;;;;35.23;26.25;99900.50;18367574;32;20188;-56
2022/08/27 11:51:57;;;;;;;7.90;2.60;;;;;;;35.59;26.36;99890.97;18367243;32;20377;-56
2022/08/27 12:02:13;;;;;;;6.30;2.40;;;;;;;34.78;24.23;99883.03;18367870;32;20105;-56
2022/08/27 12:12:22;;;;;;;4.43;2.10;;;;;;;35.27;25.59;99874.69;18367875;32;20107;-56
2022/08/27 12:33:04;;;;;;;9.82;1.98;;;;;;;35.64;25.69;99849.72;18430271;32;20120;-56
2022/08/27 12:43:12;;;;;;;5.75;2.12;;;;;;;35.65;24.71;99838.72;18430666;32;20105;-56
2022/08/27 12:53:35;;;;;;;7.40;2.00;;;;;;;36.47;24.21;99813.66;18430148;32;20361;-56
2022/08/27 13:03:40;;;;;;;5.10;1.90;;;;;;;36.05;25.20;99813.22;18429902;32;20127;-56
2022/08/27 13:13:44;;;;;;;5.47;2.30;;;;;;;36.21;23.61;99802.22;18435822;32;20094;-56
2022/08/27 13:23:53;;;;;;;6.82;2.20;;;;;;;35.35;24.90;99806.00;18436733;32;20123;-56
2022/08/27 13:33:58;;;;;;;6.60;2.50;;;;;;;35.99;24.37;99803.97;18436753;32;20455;-56
2022/08/27 13:44:07;;;;;;;8.15;2.03;;;;;;;34.59;23.93;99803.84;18421800;32;20170;-56
2022/08/27 13:54:13;;;;;;;6.22;2.40;;;;;;;34.89;23.64;99804.03;18436018;32;20115;-56
2022/08/27 14:04:22;;;;;;;5.55;2.00;;;;;;;34.90;24.72;99805.72;18435819;32;20141;-56
2022/08/27 14:14:27;;;;;;;6.90;2.03;;;;;;;35.25;25.16;99814.38;18435681;32;20103;-56
2022/08/27 14:24:30;;;;;;;7.78;2.87;;;;;;;35.26;27.23;99807.91;18434707;32;20108;-56
2022/08/27 14:34:35;;;;;;;5.43;2.20;;;;;;;35.07;27.60;99805.66;18434641;32;20093;-56
2022/08/27 14:44:39;;;;;;;7.53;2.53;;;;;;;34.74;28.30;99798.53;18434790;32;20092;-56
2022/08/27 14:54:44;;;;;;;7.32;2.30;;;;;;;35.13;26.94;99804.97;18434047;32;20166;-56
2022/08/27 15:04:47;;;;;;;6.45;2.50;;;;;;;35.18;26.71;99807.12;18433982;32;20111;-56
2022/08/27 15:14:52;;;;;;;6.62;2.10;;;;;;;35.06;26.44;99803.97;18433627;32;20690;-56
2022/08/27 15:24:56;;;;;;;10.40;2.22;;;;;;;34.62;27.33;99814.31;18432696;32;20089;-56
2022/08/27 15:35:03;;;;;;;4.20;1.98;;;;;;;34.36;27.95;99814.56;18432592;32;20104;-56
2022/08/27 15:45:08;;;;;;;5.97;2.03;;;;;;;33.98;29.35;99810.53;18433055;32;20462;-56
2022/08/27 15:55:21;;;;;;;5.78;2.28;;;;;;;33.92;29.93;99813.09;18432580;32;20093;-56
2022/08/27 16:05:31;;;;;;;8.55;2.40;;;;;;;33.96;29.51;99809.00;18432350;32;20425;-56
2022/08/27 16:15:38;;;;;;;7.62;2.50;;;;;;;33.84;29.11;99812.06;18431877;32;20706;-56
2022/08/27 16:25:41;;;;;;;8.75;2.50;;;;;;;33.87;28.97;99817.16;18431190;32;20114;-56
2022/08/27 16:35:47;;;;;;;9.02;2.70;;;;;;;33.62;30.18;99809.06;18431034;32;20089;-56
2022/08/27 16:45:51;;;;;;;9.48;3.00;;;;;;;33.03;32.20;99809.97;18430917;32;20096;-56
2022/08/27 16:55:56;;;;;;;7.37;3.00;;;;;;;32.50;33.50;99820.84;18430073;32;20103;-56
2022/08/27 17:05:59;;;;;;;10.75;3.60;;;;;;;31.84;37.78;99825.81;18429235;32;20195;-56
2022/08/27 17:16:06;;;;;;;9.20;3.20;;;;;;;31.34;40.00;99835.25;18414518;32;20155;-56
2022/08/27 17:26:11;;;;;;;21.98;9.85;;;;;;;30.85;41.62;99853.41;18428175;32;20096;-56
2022/08/27 17:36:15;;;;;;;19.27;10.48;;;;;;;30.51;42.94;99864.69;18427395;32;20111;-56
2022/08/27 17:46:19;;;;;;;12.85;4.70;;;;;;;30.05;44.15;99869.91;18427089;32;20639;-56
2022/08/27 17:56:23;;;;;;;9.85;3.50;;;;;;;29.41;46.11;99886.37;18416424;32;20109;-56
2022/08/27 18:06:29;;;;;;;12.05;4.12;;;;;;;29.00;48.10;99909.72;18435676;32;20733;-56
2022/08/27 18:16:34;;;;;;;9.57;3.42;;;;;;;28.67;49.37;99926.78;18435391;32;20732;-56
2022/08/27 18:26:38;;;;;;;16.40;8.88;;;;;;;28.37;49.35;99939.19;18434897;32;20519;-56
2022/08/27 18:36:43;;;;;;;21.80;11.40;;;;;;;28.04;50.68;99946.38;18420328;32;20163;-56
2022/08/27 18:46:46;;;;;;;57.50;32.13;;;;;;;27.84;51.54;99964.13;18434119;32;20112;-56
2022/08/27 18:56:51;;;;;;;41.33;18.25;;;;;;;27.60;52.21;99969.63;18420786;32;20119;-56
2022/08/27 19:06:54;;;;;;;65.55;36.72;;;;;;;27.36;52.43;99974.16;18433042;32;20151;-56
2022/08/27 19:17:02;;;;;;;34.78;19.87;;;;;;;27.22;53.11;99969.91;18433686;32;20097;-56
2022/08/27 19:27:06;;;;;;;33.30;12.65;;;;;;;27.14;52.09;99954.44;18419939;32;20452;-56
2022/08/27 19:37:20;;;;;;;31.62;18.33;;;;;;;26.98;52.79;99960.16;18434290;32;20147;-56
2022/08/27 19:47:24;;;;;;;21.12;11.90;;;;;;;26.89;53.76;99952.84;18418786;32;20092;-55
2022/08/27 19:57:29;;;;;;;12.98;5.15;;;;;;;26.58;53.14;99949.84;18432646;32;20097;-56
2022/08/27 20:07:32;;;;;;;9.90;3.78;;;;;;;26.43;53.02;99955.41;18432188;32;20162;-56
2022/08/27 20:17:38;;;;;;;9.60;4.07;;;;;;;26.50;51.66;99939.72;18431712;32;20347;-56
2022/08/27 20:27:41;;;;;;;12.43;4.05;;;;;;;26.34;53.84;99950.75;18431008;32;20133;-56
2022/08/27 20:37:46;;;;;;;10.73;4.87;;;;;;;26.18;54.46;99956.37;18431893;32;20085;-56
2022/08/27 20:47:50;;;;;;;14.77;5.55;;;;;;;26.16;54.32;99967.19;18417355;32;20646;-56
2022/08/27 21:08:18;;;;;;;9.82;4.70;;;;;;;25.75;55.24;99971.13;18429402;32;20097;-56
2022/08/27 21:18:22;;;;;;;11.15;4.43;;;;;;;25.42;56.12;99976.09;18428799;32;20089;-55
2022/08/27 21:28:31;;;;;;;;;;;;;;;25.24;56.29;99988.94;18415693;32;20115;-55
2022/08/27 21:38:36;;;;;;;12.52;4.07;;;;;;;24.99;58.26;99996.00;18436606;32;20261;-56
2022/08/27 21:48:39;;;;;;;14.30;4.62;;;;;;;24.80;58.16;100007.06;18436221;32;20115;-55
2022/08/27 21:58:44;;;;;;;12.50;4.60;;;;;;;24.55;59.19;100003.41;18435866;32;20151;-55
2022/08/27 22:08:47;;;;;;;8.98;3.92;;;;;;;24.28;60.27;99995.41;18435114;32;20101;-55
2022/08/27 22:18:52;;;;;;;10.00;4.20;;;;;;;24.21;60.62;100005.63;18435321;32;20111;-55
2022/08/27 22:28:57;;;;;;;10.75;4.07;;;;;;;23.94;60.83;100009.97;18435025;32;20100;-55
2022/08/27 22:39:02;;;;;;;10.13;4.18;;;;;;;23.86;61.17;100000.78;18433922;32;20155;-56
2022/08/27 22:49:06;;;;;;;9.88;4.20;;;;;;;23.78;61.93;99987.94;18435665;32;20720;-55
2022/08/27 22:59:10;;;;;;;9.30;4.35;;;;;;;23.95;61.74;99990.38;18434261;32;20093;-55
2022/08/27 23:09:13;;;;;;;9.25;4.43;;;;;;;23.84;62.06;99987.56;18433992;32;20162;-56
2022/08/27 23:19:18;;;;;;;10.15;4.40;;;;;;;23.84;61.68;99988.38;18434662;32;20188;-55
2022/08/27 23:29:22;;;;;;;10.45;4.32;;;;;;;23.58;62.69;99990.06;18433165;32;20093;-55
2022/08/27 23:39:26;;;;;;;9.50;3.72;;;;;;;23.62;62.08;99991.59;18433949;32;20093;-56
2022/08/27 23:49:31;;;;;;;9.50;4.10;;;;;;;23.33;63.23;100007.56;18432432;32;20112;-55
2022/08/27 23:59:35;;;;;;;10.95;3.80;;;;;;;23.52;61.95;100006.44;18419022;32;20097;-55
